sensor_id;sensor_type;location;lat;lon;timestamp;pressure;altitude;pressure_sealevel;temperature;humidity
32873;BME280;19224;52.462;16.898;2023-02-26T00:02:02;99455.36;;;0.62;100.00
32873;BME280;19224;52.462;16.898;2023-02-26T00:04:32;99454.82;;;0.66;100.00
32873;BME280;19224;52.462;16.898;2023-02-26T00:07:04;99459.89;;;0.56;100.00
32873;BME280;19224;52.462;16.898;2023-02-26T00:09:34;99461.16;;;0.59;100.00
32873;BME280;19224;52.462;16.898;2023-02-26T00:12:06;99471.42;;;0.52;100.00
32873;BME280;19224;52.462;16.898;2023-02-26T00:14:37;99470.94;;;0.54;100.00
32873;BME280;19224;52.462;16.898;2023-02-26T00:18:06;99472.45;;;0.45;100.00
32873;BME280;19224;52.462;16.898;2023-02-26T00:20:39;99476.94;;;0.40;100.00
32873;BME280;19224;52.462;16.898;2023-02-26T00:23:13;99481.83;;;0.37;100.00
32873;BME280;19224;52.462;16.898;2023-02-26T00:25:43;99486.63;;;0.41;100.00
32873;BME280;19224;52.462;16.898;2023-02-26T00:28:15;99484.45;;;0.40;100.00
32873;BME280;19224;52.462;16.898;2023-02-26T00:30:46;99492.41;;;0.39;100.00
32873;BME280;19224;52.462;16.898;2023-02-26T00:33:17;99494.70;;;0.35;100.00
32873;BME280;19224;52.462;16.898;2023-02-26T00:35:50;99497.63;;;0.43;100.00
32873;BME280;19224;52.462;16.898;2023-02-26T00:38:21;99501.48;;;0.49;100.00
32873;BME280;19224;52.462;16.898;2023-02-26T00:40:54;99503.00;;;0.39;100.00
32873;BME280;19224;52.462;16.898;2023-02-26T00:43:26;99500.27;;;0.45;100.00
32873;BME280;19224;52.462;16.898;2023-02-26T00:51:55;99510.59;;;0.58;100.00
32873;BME280;19224;52.462;16.898;2023-02-26T00:54:30;99514.06;;;0.62;100.00
32873;BME280;19224;52.462;16.898;2023-02-26T00:57:01;99514.08;;;0.60;100.00
32873;BME280;19224;52.462;16.898;2023-02-26T00:59:33;99518.52;;;0.60;100.00
32873;BME280;19224;52.462;16.898;2023-02-26T01:02:03;99510.17;;;0.57;100.00
32873;BME280;19224;52.462;16.898;2023-02-26T01:04:34;99522.16;;;0.54;100.00
32873;BME280;19224;52.462;16.898;2023-02-26T01:07:05;99516.84;;;0.56;100.00
32873;BME280;19224;52.462;16.898;2023-02-26T01:09:37;99519.91;;;0.57;100.00
32873;BME280;19224;52.462;16.898;2023-02-26T01:12:11;99518.59;;;0.57;100.00
32873;BME280;19224;52.462;16.898;2023-02-26T01:14:43;99520.34;;;0.56;100.00
32873;BME280;19224;52.462;16.898;2023-02-26T01:20:20;99530.61;;;0.49;100.00
32873;BME280;19224;52.462;16.898;2023-02-26T01:23:04;99529.39;;;0.45;100.00
32873;BME280;19224;52.462;16.898;2023-02-26T01:28:25;99533.94;;;0.37;100.00
32873;BME280;19224;52.462;16.898;2023-02-26T01:31:00;99540.20;;;0.31;100.00
32873;BME280;19224;52.462;16.898;2023-02-26T01:33:43;99542.93;;;0.25;100.00
32873;BME280;19224;52.462;16.898;2023-02-26T01:36:27;99548.63;;;0.29;100.00
32873;BME280;19224;52.462;16.898;2023-02-26T01:39:31;99549.97;;;0.26;100.00
32873;BME280;19224;52.462;16.898;2023-02-26T01:42:22;99553.56;;;0.24;100.00
32873;BME280;19224;52.462;16.898;2023-02-26T01:45:17;99554.49;;;0.20;100.00
32873;BME280;19224;52.462;16.898;2023-02-26T01:48:17;99557.14;;;0.20;100.00
32873;BME280;19224;52.462;16.898;2023-02-26T01:50:44;99558.11;;;0.14;100.00
32873;BME280;19224;52.462;16.898;2023-02-26T01:53:25;99563.33;;;0.19;100.00
32873;BME280;19224;52.462;16.898;2023-02-26T01:56:03;99570.43;;;0.17;100.00
32873;BME280;19224;52.462;16.898;2023-02-26T01:58:36;99577.84;;;0.22;100.00
32873;BME280;19224;52.462;16.898;2023-02-26T02:01:08;99577.95;;;0.16;100.00
32873;BME280;19224;52.462;16.898;2023-02-26T02:03:40;99578.80;;;0.16;100.00
32873;BME280;19224;52.462;16.898;2023-02-26T02:06:23;99589.03;;;0.11;100.00
32873;BME280;19224;52.462;16.898;2023-02-26T02:08:54;99599.13;;;0.14;100.00
32873;BME280;19224;52.462;16.898;2023-02-26T02:11:25;99596.60;;;0.07;100.00
32873;BME280;19224;52.462;16.898;2023-02-26T02:14:01;99599.72;;;0.06;100.00
32873;BME280;19224;52.462;16.898;2023-02-26T02:16:44;99596.30;;;-0.02;100.00
32873;BME280;19224;52.462;16.898;2023-02-26T02:25:53;99599.61;;;0.12;100.00
32873;BME280;19224;52.462;16.898;2023-02-26T02:32:08;99612.06;;;0.06;100.00
32873;BME280;19224;52.462;16.898;2023-02-26T02:34:51;99618.36;;;-0.02;100.00
32873;BME280;19224;52.462;16.898;2023-02-26T02:37:44;99616.52;;;0.02;100.00
32873;BME280;19224;52.462;16.898;2023-02-26T02:40:21;99623.97;;;0.06;100.00
32873;BME280;19224;52.462;16.898;2023-02-26T02:43:16;99628.84;;;0.05;100.00
32873;BME280;19224;52.462;16.898;2023-02-26T02:46:00;99630.16;;;0.05;100.00
32873;BME280;19224;52.462;16.898;2023-02-26T02:48:52;99636.35;;;0.04;100.00
32873;BME280;19224;52.462;16.898;2023-02-26T02:51:28;99646.09;;;0.02;100.00
32873;BME280;19224;52.462;16.898;2023-02-26T02:54:09;99652.77;;;-0.04;100.00
32873;BME280;19224;52.462;16.898;2023-02-26T03:02:42;99665.67;;;-0.11;100.00
32873;BME280;19224;52.462;16.898;2023-02-26T03:05:13;99673.15;;;-0.12;100.00
32873;BME280;19224;52.462;16.898;2023-02-26T03:08:04;99677.58;;;-0.11;100.00
32873;BME280;19224;52.462;16.898;2023-02-26T03:10:35;99680.02;;;0.04;100.00
32873;BME280;19224;52.462;16.898;2023-02-26T03:13:10;99689.81;;;-0.02;100.00
32873;BME280;19224;52.462;16.898;2023-02-26T03:15:52;99691.14;;;-0.04;100.00
32873;BME280;19224;52.462;16.898;2023-02-26T03:21:28;99692.99;;;-0.12;100.00
32873;BME280;19224;52.462;16.898;2023-02-26T03:24:07;99703.14;;;-0.10;100.00
32873;BME280;19224;52.462;16.898;2023-02-26T03:26:48;99708.44;;;-0.13;100.00
32873;BME280;19224;52.462;16.898;2023-02-26T03:32:23;99716.33;;;-0.08;100.00
32873;BME280;19224;52.462;16.898;2023-02-26T03:34:54;99711.22;;;-0.23;100.00
32873;BME280;19224;52.462;16.898;2023-02-26T03:37:38;99720.48;;;-0.25;100.00
32873;BME280;19224;52.462;16.898;2023-02-26T03:40:33;99725.35;;;-0.26;100.00
32873;BME280;19224;52.462;16.898;2023-02-26T03:42:59;99738.58;;;-0.26;100.00
32873;BME280;19224;52.462;16.898;2023-02-26T03:45:33;99728.42;;;-0.23;100.00
32873;BME280;19224;52.462;16.898;2023-02-26T03:48:07;99747.41;;;-0.27;100.00
32873;BME280;19224;52.462;16.898;2023-02-26T03:50:53;99750.05;;;-0.27;100.00
32873;BME280;19224;52.462;16.898;2023-02-26T03:53:29;99750.02;;;-0.24;100.00
32873;BME280;19224;52.462;16.898;2023-02-26T03:56:16;99757.47;;;-0.19;100.00
32873;BME280;19224;52.462;16.898;2023-02-26T03:58:46;99764.05;;;-0.16;100.00
32873;BME280;19224;52.462;16.898;2023-02-26T04:01:27;99770.62;;;-0.13;100.00
32873;BME280;19224;52.462;16.898;2023-02-26T04:04:16;99759.14;;;-0.12;100.00
32873;BME280;19224;52.462;16.898;2023-02-26T04:06:46;99760.07;;;-0.14;100.00
32873;BME280;19224;52.462;16.898;2023-02-26T04:09:17;99771.89;;;-0.07;100.00
32873;BME280;19224;52.462;16.898;2023-02-26T04:11:49;99771.00;;;-0.07;100.00
32873;BME280;19224;52.462;16.898;2023-02-26T04:14:21;99775.43;;;-0.08;100.00
32873;BME280;19224;52.462;16.898;2023-02-26T04:16:51;99784.17;;;-0.03;100.00
32873;BME280;19224;52.462;16.898;2023-02-26T04:19:22;99787.77;;;-0.05;100.00
32873;BME280;19224;52.462;16.898;2023-02-26T04:21:52;99790.45;;;-0.13;100.00
32873;BME280;19224;52.462;16.898;2023-02-26T04:24:23;99791.77;;;-0.10;100.00
32873;BME280;19224;52.462;16.898;2023-02-26T04:26:53;99801.47;;;-0.12;100.00
32873;BME280;19224;52.462;16.898;2023-02-26T04:29:24;99791.86;;;-0.19;100.00
32873;BME280;19224;52.462;16.898;2023-02-26T04:31:55;99798.48;;;-0.19;100.00
32873;BME280;19224;52.462;16.898;2023-02-26T04:34:26;99796.26;;;-0.18;100.00
32873;BME280;19224;52.462;16.898;2023-02-26T04:36:57;99808.63;;;-0.20;100.00
32873;BME280;19224;52.462;16.898;2023-02-26T04:39:27;99810.34;;;-0.16;100.00
32873;BME280;19224;52.462;16.898;2023-02-26T04:41:58;99808.59;;;-0.18;100.00
32873;BME280;19224;52.462;16.898;2023-02-26T04:44:28;99812.21;;;-0.25;100.00
32873;BME280;19224;52.462;16.898;2023-02-26T04:46:59;99808.93;;;-0.07;100.00
32873;BME280;19224;52.462;16.898;2023-02-26T04:49:29;99816.83;;;-0.04;100.00
32873;BME280;19224;52.462;16.898;2023-02-26T04:52:01;99817.34;;;-0.09;100.00
32873;BME280;19224;52.462;16.898;2023-02-26T04:54:31;99821.27;;;-0.04;100.00
32873;BME280;19224;52.462;16.898;2023-02-26T04:57:02;99833.14;;;-0.03;100.00
32873;BME280;19224;52.462;16.898;2023-02-26T04:59:32;99831.80;;;0.00;100.00
32873;BME280;19224;52.462;16.898;2023-02-26T05:02:03;99834.45;;;0.00;100.00
32873;BME280;19224;52.462;16.898;2023-02-26T05:04:34;99829.97;;;0.05;100.00
32873;BME280;19224;52.462;16.898;2023-02-26T05:07:05;99837.87;;;0.08;100.00
32873;BME280;19224;52.462;16.898;2023-02-26T05:09:35;99833.00;;;0.10;100.00
32873;BME280;19224;52.462;16.898;2023-02-26T05:12:06;99847.05;;;0.15;100.00
32873;BME280;19224;52.462;16.898;2023-02-26T05:14:36;99845.77;;;0.12;100.00
32873;BME280;19224;52.462;16.898;2023-02-26T05:17:07;99853.66;;;0.18;100.00
32873;BME280;19224;52.462;16.898;2023-02-26T05:19:38;99856.78;;;0.15;100.00
32873;BME280;19224;52.462;16.898;2023-02-26T05:22:09;99859.77;;;0.22;100.00
32873;BME280;19224;52.462;16.898;2023-02-26T05:24:39;99854.98;;;0.17;100.00
32873;BME280;19224;52.462;16.898;2023-02-26T05:27:10;99869.50;;;0.23;100.00
32873;BME280;19224;52.462;16.898;2023-02-26T05:29:42;99877.36;;;0.27;100.00
32873;BME280;19224;52.462;16.898;2023-02-26T05:32:14;99870.73;;;0.29;100.00
32873;BME280;19224;52.462;16.898;2023-02-26T05:34:46;99872.48;;;0.30;100.00
32873;BME280;19224;52.462;16.898;2023-02-26T05:37:16;99880.86;;;0.31;100.00
32873;BME280;19224;52.462;16.898;2023-02-26T05:39:46;99887.98;;;0.24;100.00
32873;BME280;19224;52.462;16.898;2023-02-26T05:42:17;99887.90;;;0.33;100.00
32873;BME280;19224;52.462;16.898;2023-02-26T05:44:47;99888.80;;;0.34;100.00
32873;BME280;19224;52.462;16.898;2023-02-26T05:47:17;99893.14;;;0.39;100.00
32873;BME280;19224;52.462;16.898;2023-02-26T05:49:48;99900.67;;;0.37;100.00
32873;BME280;19224;52.462;16.898;2023-02-26T05:52:19;99909.85;;;0.43;100.00
32873;BME280;19224;52.462;16.898;2023-02-26T05:54:49;99908.90;;;0.51;100.00
32873;BME280;19224;52.462;16.898;2023-02-26T05:57:19;99920.73;;;0.57;100.00
32873;BME280;19224;52.462;16.898;2023-02-26T05:59:50;99928.25;;;0.58;100.00
32873;BME280;19224;52.462;16.898;2023-02-26T06:02:20;99925.13;;;0.61;100.00
32873;BME280;19224;52.462;16.898;2023-02-26T06:04:51;99932.74;;;0.50;100.00
32873;BME280;19224;52.462;16.898;2023-02-26T06:07:21;99944.23;;;0.50;100.00
32873;BME280;19224;52.462;16.898;2023-02-26T06:09:52;99939.74;;;0.55;100.00
32873;BME280;19224;52.462;16.898;2023-02-26T06:12:23;99944.48;;;0.66;100.00
32873;BME280;19224;52.462;16.898;2023-02-26T06:14:53;99945.28;;;0.73;100.00
32873;BME280;19224;52.462;16.898;2023-02-26T06:17:24;99950.20;;;0.69;100.00
32873;BME280;19224;52.462;16.898;2023-02-26T06:19:55;99958.11;;;0.70;100.00
32873;BME280;19224;52.462;16.898;2023-02-26T06:22:25;99961.56;;;0.80;100.00
32873;BME280;19224;52.462;16.898;2023-02-26T06:24:55;99965.86;;;0.90;100.00
32873;BME280;19224;52.462;16.898;2023-02-26T06:27:26;99959.76;;;0.82;100.00
32873;BME280;19224;52.462;16.898;2023-02-26T06:29:56;99972.48;;;0.90;100.00
32873;BME280;19224;52.462;16.898;2023-02-26T06:32:26;99978.17;;;0.92;100.00
32873;BME280;19224;52.462;16.898;2023-02-26T06:34:57;99978.97;;;1.00;100.00
32873;BME280;19224;52.462;16.898;2023-02-26T06:37:27;99989.20;;;0.93;100.00
32873;BME280;19224;52.462;16.898;2023-02-26T06:39:57;99997.57;;;0.97;100.00
32873;BME280;19224;52.462;16.898;2023-02-26T06:42:28;99989.62;;;0.94;100.00
32873;BME280;19224;52.462;16.898;2023-02-26T06:44:58;99999.75;;;0.98;100.00
32873;BME280;19224;52.462;16.898;2023-02-26T06:47:29;100004.53;;;1.04;100.00
32873;BME280;19224;52.462;16.898;2023-02-26T06:49:59;100005.91;;;1.03;100.00
32873;BME280;19224;52.462;16.898;2023-02-26T06:52:31;100004.59;;;1.00;100.00
32873;BME280;19224;52.462;16.898;2023-02-26T06:55:03;100002.78;;;1.03;100.00
32873;BME280;19224;52.462;16.898;2023-02-26T06:57:34;100009.89;;;1.00;100.00
32873;BME280;19224;52.462;16.898;2023-02-26T07:00:06;100014.38;;;0.95;100.00
32873;BME280;19224;52.462;16.898;2023-02-26T07:02:37;100017.93;;;0.94;100.00
32873;BME280;19224;52.462;16.898;2023-02-26T07:05:08;100021.52;;;0.90;100.00
32873;BME280;19224;52.462;16.898;2023-02-26T07:07:39;100025.41;;;0.94;100.00
32873;BME280;19224;52.462;16.898;2023-02-26T07:10:11;100031.98;;;1.02;100.00
32873;BME280;19224;52.462;16.898;2023-02-26T07:12:41;100029.72;;;1.06;100.00
32873;BME280;19224;52.462;16.898;2023-02-26T07:15:11;100030.66;;;1.02;100.00
32873;BME280;19224;52.462;16.898;2023-02-26T07:17:43;100035.07;;;1.00;100.00
32873;BME280;19224;52.462;16.898;2023-02-26T07:20:13;100042.69;;;0.93;100.00
32873;BME280;19224;52.462;16.898;2023-02-26T07:22:45;100047.13;;;0.88;100.00
32873;BME280;19224;52.462;16.898;2023-02-26T07:25:15;100053.20;;;0.99;100.00
32873;BME280;19224;52.462;16.898;2023-02-26T07:27:46;100049.30;;;0.93;100.00
32873;BME280;19224;52.462;16.898;2023-02-26T07:30:17;100067.39;;;0.95;100.00
32873;BME280;19224;52.462;16.898;2023-02-26T07:32:48;100065.98;;;1.04;100.00
32873;BME280;19224;52.462;16.898;2023-02-26T07:35:18;100063.75;;;1.05;100.00
32873;BME280;19224;52.462;16.898;2023-02-26T07:37:49;100072.38;;;1.25;100.00
32873;BME280;19224;52.462;16.898;2023-02-26T07:40:20;100069.06;;;1.42;100.00
32873;BME280;19224;52.462;16.898;2023-02-26T07:42:50;100077.34;;;1.52;100.00
32873;BME280;19224;52.462;16.898;2023-02-26T07:45:21;100084.30;;;1.62;100.00
32873;BME280;19224;52.462;16.898;2023-02-26T07:47:52;100081.59;;;1.65;100.00
32873;BME280;19224;52.462;16.898;2023-02-26T07:50:23;100081.44;;;1.77;100.00
32873;BME280;19224;52.462;16.898;2023-02-26T07:52:53;100091.25;;;1.72;100.00
32873;BME280;19224;52.462;16.898;2023-02-26T07:55:24;100093.84;;;1.75;100.00
32873;BME280;19224;52.462;16.898;2023-02-26T07:57:55;100098.67;;;1.78;100.00
32873;BME280;19224;52.462;16.898;2023-02-26T08:00:25;100100.96;;;1.73;100.00
32873;BME280;19224;52.462;16.898;2023-02-26T08:02:56;100108.07;;;1.71;100.00
32873;BME280;19224;52.462;16.898;2023-02-26T08:05:26;100100.96;;;1.73;100.00
32873;BME280;19224;52.462;16.898;2023-02-26T08:07:57;100118.31;;;1.64;100.00
32873;BME280;19224;52.462;16.898;2023-02-26T08:10:29;100129.36;;;1.65;100.00
32873;BME280;19224;52.462;16.898;2023-02-26T08:12:59;100130.73;;;1.63;100.00
32873;BME280;19224;52.462;16.898;2023-02-26T08:15:30;100136.89;;;1.64;100.00
32873;BME280;19224;52.462;16.898;2023-02-26T08:18:00;100143.58;;;1.61;100.00
32873;BME280;19224;52.462;16.898;2023-02-26T08:20:30;100144.00;;;1.60;100.00
32873;BME280;19224;52.462;16.898;2023-02-26T08:23:01;100144.80;;;1.70;100.00
32873;BME280;19224;52.462;16.898;2023-02-26T08:25:31;100153.19;;;1.71;100.00
32873;BME280;19224;52.462;16.898;2023-02-26T08:28:01;100155.84;;;1.71;100.00
32873;BME280;19224;52.462;16.898;2023-02-26T08:30:32;100165.41;;;1.82;100.00
32873;BME280;19224;52.462;16.898;2023-02-26T08:33:02;100167.12;;;1.88;100.00
32873;BME280;19224;52.462;16.898;2023-02-26T08:35:33;100176.98;;;1.78;100.00
32873;BME280;19224;52.462;16.898;2023-02-26T08:38:03;100179.64;;;1.77;100.00
32873;BME280;19224;52.462;16.898;2023-02-26T08:40:33;100177.88;;;1.79;100.00
32873;BME280;19224;52.462;16.898;2023-02-26T08:43:04;100188.78;;;1.89;100.00
32873;BME280;19224;52.462;16.898;2023-02-26T08:45:34;100189.69;;;1.88;100.00
32873;BME280;19224;52.462;16.898;2023-02-26T08:48:05;100190.21;;;1.81;100.00
32873;BME280;19224;52.462;16.898;2023-02-26T08:50:35;100212.68;;;1.89;100.00
32873;BME280;19224;52.462;16.898;2023-02-26T08:53:05;100202.57;;;1.85;100.00
32873;BME280;19224;52.462;16.898;2023-02-26T08:55:36;100214.05;;;1.86;100.00
32873;BME280;19224;52.462;16.898;2023-02-26T08:58:06;100207.89;;;1.84;100.00
32873;BME280;19224;52.462;16.898;2023-02-26T09:00:37;100232.63;;;1.86;100.00
32873;BME280;19224;52.462;16.898;2023-02-26T09:03:07;100222.48;;;1.82;100.00
32873;BME280;19224;52.462;16.898;2023-02-26T09:05:37;100233.19;;;1.76;100.00
32873;BME280;19224;52.462;16.898;2023-02-26T09:08:08;100237.94;;;1.86;100.00
32873;BME280;19224;52.462;16.898;2023-02-26T09:10:41;100241.55;;;1.82;100.00
32873;BME280;19224;52.462;16.898;2023-02-26T09:13:12;100236.95;;;1.96;100.00
32873;BME280;19224;52.462;16.898;2023-02-26T09:15:42;100243.38;;;2.14;100.00
32873;BME280;19224;52.462;16.898;2023-02-26T09:18:13;100248.70;;;2.12;100.00
32873;BME280;19224;52.462;16.898;2023-02-26T09:20:44;100257.15;;;2.09;100.00
32873;BME280;19224;52.462;16.898;2023-02-26T09:23:14;100260.97;;;2.24;100.00
32873;BME280;19224;52.462;16.898;2023-02-26T09:25:44;100264.06;;;2.25;100.00
32873;BME280;19224;52.462;16.898;2023-02-26T09:28:15;100265.82;;;2.24;100.00
32873;BME280;19224;52.462;16.898;2023-02-26T09:30:45;100270.92;;;2.40;100.00
32873;BME280;19224;52.462;16.898;2023-02-26T09:33:16;100271.30;;;2.46;100.00
32873;BME280;19224;52.462;16.898;2023-02-26T09:35:51;100284.53;;;2.49;100.00
32873;BME280;19224;52.462;16.898;2023-02-26T09:38:22;100286.27;;;2.53;100.00
32873;BME280;19224;52.462;16.898;2023-02-26T09:44:12;100291.64;;;2.50;100.00
32873;BME280;19224;52.462;16.898;2023-02-26T09:47:04;100297.22;;;2.63;100.00
32873;BME280;19224;52.462;16.898;2023-02-26T09:52:43;100310.30;;;2.76;100.00
32873;BME280;19224;52.462;16.898;2023-02-26T09:55:31;100308.86;;;2.85;100.00
32873;BME280;19224;52.462;16.898;2023-02-26T09:58:51;100321.44;;;3.05;100.00
32873;BME280;19224;52.462;16.898;2023-02-26T10:01:05;100316.78;;;3.19;100.00
32873;BME280;19224;52.462;16.898;2023-02-26T10:04:06;100320.64;;;3.28;100.00
32873;BME280;19224;52.462;16.898;2023-02-26T10:12:25;100338.58;;;3.44;93.46
32873;BME280;19224;52.462;16.898;2023-02-26T10:15:12;100331.22;;;3.33;94.23
32873;BME280;19224;52.462;16.898;2023-02-26T10:18:09;100339.97;;;3.41;95.31
32873;BME280;19224;52.462;16.898;2023-02-26T10:21:19;100341.68;;;3.43;96.81
32873;BME280;19224;52.462;16.898;2023-02-26T10:23:54;100354.75;;;3.30;96.24
32873;BME280;19224;52.462;16.898;2023-02-26T10:26:33;100363.70;;;3.26;95.43
32873;BME280;19224;52.462;16.898;2023-02-26T10:34:59;100370.83;;;3.24;94.35
32873;BME280;19224;52.462;16.898;2023-02-26T10:37:57;100378.38;;;3.23;94.55
32873;BME280;19224;52.462;16.898;2023-02-26T10:43:30;100381.61;;;3.43;93.56
32873;BME280;19224;52.462;16.898;2023-02-26T10:49:01;100379.95;;;3.64;90.33
32873;BME280;19224;52.462;16.898;2023-02-26T10:51:37;100388.23;;;3.74;90.57
32873;BME280;19224;52.462;16.898;2023-02-26T10:54:26;100388.00;;;3.61;91.81
32873;BME280;19224;52.462;16.898;2023-02-26T10:56:58;100390.31;;;3.54;92.93
32873;BME280;19224;52.462;16.898;2023-02-26T10:59:29;100410.20;;;3.31;91.37
32873;BME280;19224;52.462;16.898;2023-02-26T11:02:00;100402.23;;;3.29;91.39
32873;BME280;19224;52.462;16.898;2023-02-26T11:04:31;100401.12;;;3.13;90.75
32873;BME280;19224;52.462;16.898;2023-02-26T11:07:04;100405.06;;;3.17;91.71
32873;BME280;19224;52.462;16.898;2023-02-26T11:09:44;100399.09;;;3.31;92.00
32873;BME280;19224;52.462;16.898;2023-02-26T11:12:16;100397.93;;;3.50;90.20
32873;BME280;19224;52.462;16.898;2023-02-26T11:14:48;100398.03;;;3.72;89.54
32873;BME280;19224;52.462;16.898;2023-02-26T11:17:22;100397.55;;;3.74;86.74
32873;BME280;19224;52.462;16.898;2023-02-26T11:20:32;100399.92;;;3.92;88.89
32873;BME280;19224;52.462;16.898;2023-02-26T11:23:06;100395.56;;;4.13;87.63
32873;BME280;19224;52.462;16.898;2023-02-26T11:25:37;100414.14;;;4.18;84.82
32873;BME280;19224;52.462;16.898;2023-02-26T11:28:21;100416.19;;;4.02;85.45
32873;BME280;19224;52.462;16.898;2023-02-26T11:30:52;100417.67;;;3.92;85.40
32873;BME280;19224;52.462;16.898;2023-02-26T11:33:32;100428.05;;;3.82;85.86
32873;BME280;19224;52.462;16.898;2023-02-26T11:36:05;100448.14;;;3.76;86.06
32873;BME280;19224;52.462;16.898;2023-02-26T11:38:34;100440.09;;;3.79;86.11
32873;BME280;19224;52.462;16.898;2023-02-26T11:41:06;100435.36;;;3.69;86.10
32873;BME280;19224;52.462;16.898;2023-02-26T11:43:47;100437.20;;;3.64;87.07
32873;BME280;19224;52.462;16.898;2023-02-26T11:46:17;100439.97;;;3.58;86.95
32873;BME280;19224;52.462;16.898;2023-02-26T11:48:49;100439.38;;;3.66;88.17
32873;BME280;19224;52.462;16.898;2023-02-26T11:51:25;100446.45;;;3.70;86.78
32873;BME280;19224;52.462;16.898;2023-02-26T11:53:58;100435.92;;;3.61;88.23
32873;BME280;19224;52.462;16.898;2023-02-26T11:56:37;100445.19;;;3.64;89.16
32873;BME280;19224;52.462;16.898;2023-02-26T11:59:21;100453.96;;;3.71;88.44
32873;BME280;19224;52.462;16.898;2023-02-26T12:01:53;100451.47;;;3.88;88.66
32873;BME280;19224;52.462;16.898;2023-02-26T12:04:25;100455.64;;;3.79;88.16
32873;BME280;19224;52.462;16.898;2023-02-26T12:06:56;100463.98;;;3.85;88.71
32873;BME280;19224;52.462;16.898;2023-02-26T12:09:27;100465.38;;;3.80;87.96
32873;BME280;19224;52.462;16.898;2023-02-26T12:12:12;100461.05;;;3.72;88.92
32873;BME280;19224;52.462;16.898;2023-02-26T12:15:06;100467.26;;;3.74;87.34
32873;BME280;19224;52.462;16.898;2023-02-26T12:20:44;100473.12;;;3.67;87.34
32873;BME280;19224;52.462;16.898;2023-02-26T12:23:25;100475.50;;;3.85;87.29
32873;BME280;19224;52.462;16.898;2023-02-26T12:26:23;100472.62;;;4.00;87.46
32873;BME280;19224;52.462;16.898;2023-02-26T12:35:43;100482.70;;;3.79;84.62
32873;BME280;19224;52.462;16.898;2023-02-26T12:38:37;100489.91;;;3.72;84.45
32873;BME280;19224;52.462;16.898;2023-02-26T12:47:52;100493.27;;;4.14;84.50
32873;BME280;19224;52.462;16.898;2023-02-26T13:05:43;100511.49;;;4.13;81.20
32873;BME280;19224;52.462;16.898;2023-02-26T13:08:20;100519.97;;;4.11;82.32
32873;BME280;19224;52.462;16.898;2023-02-26T13:11:06;100523.73;;;3.97;82.37
32873;BME280;19224;52.462;16.898;2023-02-26T13:16:55;100525.80;;;3.77;79.41
32873;BME280;19224;52.462;16.898;2023-02-26T13:19:30;100521.01;;;3.70;79.14
32873;BME280;19224;52.462;16.898;2023-02-26T13:26:08;100525.33;;;3.77;80.23
32873;BME280;19224;52.462;16.898;2023-02-26T13:27:48;100525.43;;;3.71;79.59
32873;BME280;19224;52.462;16.898;2023-02-26T13:30:30;100522.46;;;3.61;79.82
32873;BME280;19224;52.462;16.898;2023-02-26T13:33:00;100523.62;;;3.72;80.46
32873;BME280;19224;52.462;16.898;2023-02-26T13:35:37;100518.42;;;3.94;80.52
32873;BME280;19224;52.462;16.898;2023-02-26T13:41:29;100526.69;;;4.59;77.03
32873;BME280;19224;52.462;16.898;2023-02-26T13:44:26;100531.45;;;4.66;73.02
32873;BME280;19224;52.462;16.898;2023-02-26T13:50:38;100549.69;;;4.66;72.35
32873;BME280;19224;52.462;16.898;2023-02-26T13:53:47;100540.92;;;4.60;70.97
32873;BME280;19224;52.462;16.898;2023-02-26T14:02:42;100556.66;;;4.22;74.76
32873;BME280;19224;52.462;16.898;2023-02-26T14:20:05;100566.05;;;3.87;69.81
32873;BME280;19224;52.462;16.898;2023-02-26T14:30:51;100576.42;;;4.06;70.85
32873;BME280;19224;52.462;16.898;2023-02-26T14:33:28;100582.59;;;4.11;72.79
32873;BME280;19224;52.462;16.898;2023-02-26T14:36:00;100604.46;;;4.03;70.66
32873;BME280;19224;52.462;16.898;2023-02-26T14:38:36;100599.30;;;3.91;69.92
32873;BME280;19224;52.462;16.898;2023-02-26T14:41:37;100600.70;;;3.85;70.09
32873;BME280;19224;52.462;16.898;2023-02-26T14:44:07;100599.10;;;3.71;69.53
32873;BME280;19224;52.462;16.898;2023-02-26T14:46:35;100605.38;;;3.65;67.50
32873;BME280;19224;52.462;16.898;2023-02-26T14:49:13;100607.23;;;3.60;67.88
32873;BME280;19224;52.462;16.898;2023-02-26T15:03:29;100620.61;;;3.54;68.32
32873;BME280;19224;52.462;16.898;2023-02-26T15:09:17;100634.30;;;3.97;63.54
32873;BME280;19224;52.462;16.898;2023-02-26T15:12:04;100625.34;;;4.02;62.14
32873;BME280;19224;52.462;16.898;2023-02-26T15:15:51;100631.22;;;3.94;62.84
32873;BME280;19224;52.462;16.898;2023-02-26T15:17:52;100628.17;;;3.90;63.01
32873;BME280;19224;52.462;16.898;2023-02-26T15:20:32;100634.91;;;3.83;63.62
32873;BME280;19224;52.462;16.898;2023-02-26T15:23:18;100638.45;;;3.85;64.24
32873;BME280;19224;52.462;16.898;2023-02-26T15:25:48;100634.19;;;3.70;65.06
32873;BME280;19224;52.462;16.898;2023-02-26T15:28:34;100639.14;;;3.63;64.88
32873;BME280;19224;52.462;16.898;2023-02-26T15:31:09;100642.76;;;3.58;66.25
32873;BME280;19224;52.462;16.898;2023-02-26T15:33:40;100647.27;;;3.51;65.62
32873;BME280;19224;52.462;16.898;2023-02-26T15:36:17;100649.55;;;3.44;65.69
32873;BME280;19224;52.462;16.898;2023-02-26T15:38:55;100648.22;;;3.47;66.24
32873;BME280;19224;52.462;16.898;2023-02-26T15:41:29;100652.26;;;3.43;66.62
32873;BME280;19224;52.462;16.898;2023-02-26T15:44:08;100647.41;;;3.38;67.75
32873;BME280;19224;52.462;16.898;2023-02-26T15:46:44;100656.69;;;3.42;68.20
32873;BME280;19224;52.462;16.898;2023-02-26T15:49:35;100655.40;;;3.38;68.37
32873;BME280;19224;52.462;16.898;2023-02-26T15:52:07;100653.67;;;3.34;68.11
32873;BME280;19224;52.462;16.898;2023-02-26T15:54:48;100658.56;;;3.34;69.55